Time;durP1;ratioP1;P1;durP2;ratioP2;P2;SDS_P1;SDS_P2;PMS_P1;PMS_P2;Temp;Humidity;BMP_temperature;BMP_pressure;BME280_temperature;BME280_humidity;BME280_pressure;Samples;Min_cycle;Max_cycle;Signal;HPM_P1;HPM_P2
2022/04/26 03:36:19;;;;;;;;;;;5.90;57.40;;;;;;5149299;27;19918;-72
2022/04/26 03:38:47;;;;;;;;;;;5.90;57.40;;;;;;5131303;27;19915;-71
2022/04/26 03:41:16;;;;;;;;;;;5.90;57.40;;;;;;5152746;27;19918;-72
2022/04/26 03:43:41;;;;;;;;;;;5.90;57.40;;;;;;5152703;27;19911;-72
2022/04/26 03:46:07;;;;;;;;;;;5.90;57.40;;;;;;5152662;27;19922;-71
2022/04/26 03:48:33;;;;;;;;;;;5.80;57.50;;;;;;5117079;27;19911;-71
2022/04/26 03:50:58;;;;;;;;;;;5.80;57.40;;;;;;5152516;27;19956;-71
2022/04/26 03:53:24;;;;;;;;;;;5.80;57.50;;;;;;5152431;27;20409;-72
2022/04/26 03:55:50;;;;;;;;;;;5.70;57.40;;;;;;5152525;27;20392;-72
2022/04/26 03:58:15;;;;;;;;;;;5.70;57.40;;;;;;5152529;27;19961;-72
2022/04/26 04:00:41;;;;;;;;;;;5.60;57.50;;;;;;5152195;27;19907;-72
2022/04/26 04:03:06;;;;;;;;;;;5.60;57.50;;;;;;5152281;27;19915;-72
2022/04/26 04:05:33;;;;;;;;;;;5.60;57.50;;;;;;5152122;27;20397;-72
2022/04/26 04:07:58;;;;;;;;;;;5.60;57.50;;;;;;5152091;27;19915;-72
2022/04/26 04:10:24;;;;;;;;;;;5.60;57.40;;;;;;5133776;27;20010;-71
2022/04/26 04:12:49;;;;;;;;;;;5.50;57.40;;;;;;5152132;27;19915;-72
2022/04/26 04:15:15;;;;;;;;;;;5.50;57.60;;;;;;5152165;27;20397;-71
2022/04/26 04:17:40;;;;;;;;;;;5.50;57.50;;;;;;5152122;27;19927;-72
2022/04/26 04:20:06;;;;;;;;;;;5.50;57.50;;;;;;5152276;27;19915;-72
2022/04/26 04:22:32;;;;;;;;;;;5.40;57.50;;;;;;5151910;27;19911;-72
2022/04/26 04:24:57;;;;;;;;;;;5.40;57.60;;;;;;5152012;27;19918;-72
2022/04/26 04:27:23;;;;;;;;;;;5.40;57.60;;;;;;5133230;27;19915;-72
2022/04/26 04:29:51;;;;;;;;;;;5.40;57.60;;;;;;5151862;27;20265;-72
2022/04/26 04:32:17;;;;;;;;;;;5.40;57.50;;;;;;5151821;27;20262;-72
2022/04/26 04:34:42;;;;;;;;;;;5.40;57.50;;;;;;5151753;27;19960;-71
2022/04/26 04:37:09;;;;;;;;;;;5.40;57.40;;;;;;5129599;27;19972;-72
2022/04/26 04:39:35;;;;;;;;;;;5.40;57.50;;;;;;5130938;27;19968;-72
2022/04/26 04:42:01;;;;;;;;;;;5.50;57.50;;;;;;5131278;27;20295;-72
2022/04/26 04:44:26;;;;;;;;;;;5.40;57.50;;;;;;5131252;27;19920;-72
2022/04/26 04:46:52;;;;;;;;;;;5.40;57.50;;;;;;5130719;27;20382;-72
2022/04/26 04:49:17;;;;;;;;;;;5.40;57.50;;;;;;5130603;27;19920;-72
2022/04/26 04:51:43;;;;;;;;;;;5.40;57.60;;;;;;5129455;27;19911;-72
2022/04/26 04:54:08;;;;;;;;;;;5.30;57.50;;;;;;5130584;27;20002;-72
2022/04/26 04:56:34;;;;;;;;;;;5.30;57.50;;;;;;5129339;27;19916;-72
2022/04/26 04:59:00;;;;;;;;;;;5.30;57.50;;;;;;5129328;27;19911;-72
2022/04/26 05:01:25;;;;;;;;;;;5.30;57.60;;;;;;5130447;27;20007;-72
2022/04/26 05:03:51;;;;;;;;;;;5.20;57.60;;;;;;5130494;27;19912;-72
2022/04/26 05:06:17;;;;;;;;;;;5.20;57.70;;;;;;5130307;27;20374;-72
2022/04/26 05:08:43;;;;;;;;;;;5.20;57.70;;;;;;5130394;27;19923;-71
2022/04/26 05:11:09;;;;;;;;;;;5.20;57.70;;;;;;5130392;27;19908;-72
2022/04/26 05:13:34;;;;;;;;;;;5.30;57.70;;;;;;5129976;27;19911;-72
2022/04/26 05:16:00;;;;;;;;;;;5.30;57.70;;;;;;5130034;27;19911;-72
2022/04/26 05:18:27;;;;;;;;;;;5.30;57.70;;;;;;5130227;27;19908;-72
2022/04/26 05:20:52;;;;;;;;;;;5.30;57.80;;;;;;5130380;27;19914;-72
2022/04/26 05:26:02;;;;;;;;;;;5.30;57.80;;;;;;5129841;27;19932;-72
2022/04/26 05:28:28;;;;;;;;;;;5.30;57.80;;;;;;5129807;27;19919;-71
2022/04/26 05:30:53;;;;;;;;;;;5.40;57.80;;;;;;5129721;27;19937;-72
2022/04/26 05:33:20;;;;;;;;;;;5.40;57.80;;;;;;5129950;27;19908;-72
2022/04/26 05:35:45;;;;;;;;;;;5.50;57.80;;;;;;5129866;27;20006;-72
2022/04/26 05:38:11;;;;;;;;;;;5.60;57.80;;;;;;5147508;27;20017;-72
2022/04/26 05:40:37;;;;;;;;;;;5.70;57.90;;;;;;5150293;27;19915;-72
2022/04/26 05:43:02;;;;;;;;;;;5.70;57.80;;;;;;5150246;27;19915;-72
2022/04/26 05:45:28;;;;;;;;;;;5.80;57.80;;;;;;5150265;27;19911;-72
2022/04/26 05:47:54;;;;;;;;;;;5.80;57.80;;;;;;5150115;27;19973;-72
2022/04/26 05:50:20;;;;;;;;;;;5.90;57.90;;;;;;5149911;27;19918;-72
2022/04/26 05:52:45;;;;;;;;;;;5.90;57.80;;;;;;5149977;27;19908;-72
2022/04/26 05:55:11;;;;;;;;;;;6.00;57.80;;;;;;5150462;27;19948;-72
2022/04/26 05:57:40;;;;;;;;;;;5.90;57.80;;;;;;5150032;27;20099;-72
2022/04/26 06:00:06;;;;;;;;;;;5.90;57.90;;;;;;5149719;27;19994;-72
2022/04/26 06:02:32;;;;;;;;;;;5.90;58.00;;;;;;5149291;27;20264;-72
2022/04/26 06:04:58;;;;;;;;;;;5.90;58.10;;;;;;5149750;27;19911;-71
2022/04/26 06:07:23;;;;;;;;;;;5.90;58.00;;;;;;5149588;27;19943;-72
2022/04/26 06:09:53;;;;;;;;;;;6.00;58.00;;;;;;5149828;27;19907;-72
2022/04/26 06:12:19;;;;;;;;;;;6.00;57.90;;;;;;5149643;27;19911;-72
2022/04/26 06:14:45;;;;;;;;;;;6.10;58.00;;;;;;5149873;27;20369;-72
2022/04/26 06:17:10;;;;;;;;;;;6.20;57.90;;;;;;5149691;27;20055;-72
2022/04/26 06:19:36;;;;;;;;;;;6.30;57.90;;;;;;5149869;27;19907;-72
2022/04/26 06:22:01;;;;;;;;;;;6.30;57.80;;;;;;5130885;27;19915;-72
2022/04/26 06:24:28;;;;;;;;;;;6.40;57.90;;;;;;5149399;27;19989;-72
2022/04/26 06:26:53;;;;;;;;;;;6.60;58.00;;;;;;5149477;27;20336;-72
2022/04/26 06:29:19;;;;;;;;;;;6.70;57.90;;;;;;5149283;27;19956;-72
2022/04/26 06:31:46;;;;;;;;;;;6.80;57.90;;;;;;5149224;27;20006;-73
2022/04/26 06:34:12;;;;;;;;;;;6.90;58.00;;;;;;5130497;27;20418;-72
2022/04/26 06:36:38;;;;;;;;;;;7.10;58.10;;;;;;5148803;27;19911;-72
2022/04/26 06:39:04;;;;;;;;;;;7.20;58.10;;;;;;5149362;27;19911;-71
2022/04/26 06:41:29;;;;;;;;;;;7.40;58.20;;;;;;5130800;27;19925;-72
2022/04/26 06:43:55;;;;;;;;;;;7.50;58.10;;;;;;5149377;27;19918;-72
2022/04/26 06:46:21;;;;;;;;;;;7.60;58.00;;;;;;5149289;27;19927;-72
2022/04/26 06:48:49;;;;;;;;;;;7.70;58.10;;;;;;5149332;27;19915;-71
2022/04/26 06:51:15;;;;;;;;;;;7.80;58.10;;;;;;5148972;27;19991;-72
2022/04/26 06:53:42;;;;;;;;;;;7.90;58.00;;;;;;5148645;27;19915;-72
2022/04/26 06:56:07;;;;;;;;;;;7.90;58.00;;;;;;5148727;27;19918;-73
2022/04/26 06:58:33;;;;;;;;;;;7.90;58.20;;;;;;5129450;27;19907;-72
2022/04/26 07:01:00;;;;;;;;;;;8.00;58.40;;;;;;5130220;27;19911;-73
2022/04/26 07:03:26;;;;;;;;;;;8.10;58.30;;;;;;5148729;27;20040;-72
2022/04/26 07:05:52;;;;;;;;;;;8.20;58.30;;;;;;5129993;27;20294;-72
2022/04/26 07:08:18;;;;;;;;;;;8.20;58.30;;;;;;5148830;27;20322;-73
2022/04/26 07:10:43;;;;;;;;;;;8.20;58.40;;;;;;5130264;27;19930;-73
2022/04/26 07:13:09;;;;;;;;;;;8.30;58.50;;;;;;5148682;27;20007;-73
2022/04/26 07:15:34;;;;;;;;;;;8.40;58.50;;;;;;5133756;27;20342;-73
2022/04/26 07:18:00;;;;;;;;;;;8.50;58.40;;;;;;5152355;27;19911;-73
2022/04/26 07:20:28;;;;;;;;;;;8.60;58.50;;;;;;5152033;27;19911;-72
2022/04/26 07:22:53;;;;;;;;;;;8.80;58.50;;;;;;5152022;27;19911;-73
2022/04/26 07:25:19;;;;;;;;;;;8.90;58.50;;;;;;5152227;27;19917;-73
2022/04/26 07:27:44;;;;;;;;;;;9.10;58.50;;;;;;5133326;27;19921;-73
2022/04/26 07:30:10;;;;;;;;;;;9.20;58.50;;;;;;5151978;27;19940;-74
2022/04/26 07:35:20;;;;;;;;;;;9.40;58.50;;;;;;5151299;27;19964;-73
2022/04/26 07:37:45;;;;;;;;;;;9.50;58.40;;;;;;5151006;27;20401;-73
2022/04/26 07:40:11;;;;;;;;;;;9.60;58.40;;;;;;5151383;27;19911;-73
2022/04/26 07:42:37;;;;;;;;;;;9.70;58.60;;;;;;5151765;27;20345;-73
2022/04/26 07:45:03;;;;;;;;;;;9.70;58.70;;;;;;5133168;27;19911;-73
2022/04/26 07:47:29;;;;;;;;;;;9.80;58.90;;;;;;5151571;27;20376;-73
2022/04/26 07:49:55;;;;;;;;;;;9.90;58.70;;;;;;5151414;27;19911;-73
2022/04/26 07:52:21;;;;;;;;;;;10.10;58.70;;;;;;5151303;27;19959;-73
2022/04/26 07:54:47;;;;;;;;;;;10.20;58.80;;;;;;5151049;27;20292;-73
2022/04/26 07:57:13;;;;;;;;;;;10.40;58.80;;;;;;5150973;27;19955;-73
2022/04/26 07:59:39;;;;;;;;;;;10.60;58.80;;;;;;5151092;27;20009;-73
2022/04/26 08:02:08;;;;;;;;;;;10.90;58.90;;;;;;5150709;27;19907;-73
2022/04/26 08:04:34;;;;;;;;;;;11.10;58.80;;;;;;5150702;27;19908;-73
2022/04/26 08:06:59;;;;;;;;;;;11.40;59.10;;;;;;5150711;27;20353;-73
2022/04/26 08:09:25;;;;;;;;;;;11.80;59.30;;;;;;5132756;27;20338;-73
2022/04/26 08:11:50;;;;;;;;;;;12.40;59.70;;;;;;5150963;27;19915;-73
2022/04/26 08:14:16;;;;;;;;;;;13.10;59.60;;;;;;5150916;27;19963;-73
2022/04/26 08:16:42;;;;;;;;;;;13.80;59.60;;;;;;5150589;27;20212;-73
2022/04/26 08:19:10;;;;;;;;;;;14.50;59.40;;;;;;5150716;27;19917;-73
2022/04/26 08:21:36;;;;;;;;;;;15.00;58.70;;;;;;5150942;27;20018;-72
2022/04/26 08:27:33;;;;;;;;;;;15.70;59.50;;;;;;5135474;27;19987;-74
2022/04/26 08:29:31;;;;;;;;;;;16.40;59.50;;;;;;5135579;27;19921;-71
2022/04/26 08:31:57;;;;;;;;;;;17.80;60.10;;;;;;5150728;27;20013;-72
2022/04/26 08:34:23;;;;;;;;;;;19.20;60.10;;;;;;5150920;27;19922;-71
2022/04/26 08:36:48;;;;;;;;;;;20.60;59.70;;;;;;5132084;27;19925;-71
2022/04/26 08:39:14;;;;;;;;;;;21.60;59.10;;;;;;5150735;27;19919;-72
2022/04/26 08:41:40;;;;;;;;;;;22.50;59.00;;;;;;5150592;27;19912;-72
2022/04/26 08:44:09;;;;;;;;;;;23.10;58.80;;;;;;5150741;27;19907;-72
2022/04/26 08:52:03;;;;;;;;;;;23.90;59.40;;;;;;5150615;27;20418;-72
2022/04/26 08:54:30;;;;;;;;;;;24.20;58.00;;;;;;5131504;27;19911;-71
2022/04/26 08:56:56;;;;;;;;;;;23.80;57.60;;;;;;5150293;27;19998;-72
2022/04/26 08:59:22;;;;;;;;;;;23.00;57.40;;;;;;5150035;27;19938;-71
2022/04/26 09:01:48;;;;;;;;;;;22.20;57.80;;;;;;5150215;27;19952;-71
2022/04/26 09:04:15;;;;;;;;;;;21.50;58.40;;;;;;5150071;27;20296;-72
2022/04/26 09:06:43;;;;;;;;;;;21.30;59.00;;;;;;5149960;27;20372;-72
2022/04/26 09:09:09;;;;;;;;;;;21.50;59.50;;;;;;5149705;27;20338;-72
2022/04/26 09:11:35;;;;;;;;;;;22.00;60.00;;;;;;5150057;27;19911;-72
2022/04/26 09:14:01;;;;;;;;;;;22.30;59.80;;;;;;5150079;27;19907;-72
2022/04/26 09:16:27;;;;;;;;;;;22.50;59.70;;;;;;5149861;27;19926;-73
2022/04/26 09:18:58;;;;;;;;;;;23.20;60.60;;;;;;5150274;27;19922;-74
2022/04/26 09:21:26;;;;;;;;;;;23.60;59.40;;;;;;5131102;27;19934;-72
2022/04/26 09:23:54;;;;;;;;;;;23.20;58.70;;;;;;5150318;27;20890;-73
2022/04/26 09:26:20;;;;;;;;;;;22.40;58.20;;;;;;5150624;27;19964;-72
2022/04/26 09:28:47;;;;;;;;;;;21.60;58.60;;;;;;5151166;27;20343;-73
2022/04/26 09:31:32;;;;;;;;;;;20.90;58.70;;;;;;5149923;27;19907;-73
2022/04/26 09:34:04;;;;;;;;;;;20.40;59.10;;;;;;5147189;27;19946;-72
2022/04/26 09:36:41;;;;;;;;;;;19.90;59.20;;;;;;5148633;27;19915;-72
2022/04/26 09:39:08;;;;;;;;;;;19.50;59.10;;;;;;5148612;27;20656;-73
2022/04/26 09:41:35;;;;;;;;;;;19.20;59.00;;;;;;5131214;27;19911;-72
2022/04/26 09:44:03;;;;;;;;;;;18.80;58.80;;;;;;5150223;27;19937;-73
2022/04/26 09:46:41;;;;;;;;;;;18.20;58.70;;;;;;5149984;27;20261;-73
2022/04/26 09:49:09;;;;;;;;;;;17.70;59.20;;;;;;5149910;27;20005;-72
2022/04/26 09:51:38;;;;;;;;;;;17.30;59.50;;;;;;5149939;27;19918;-72
2022/04/26 09:54:04;;;;;;;;;;;17.20;59.50;;;;;;5150274;27;20369;-72
2022/04/26 09:56:30;;;;;;;;;;;17.00;59.60;;;;;;5150145;27;19979;-71
2022/04/26 09:58:56;;;;;;;;;;;16.90;59.50;;;;;;5131135;27;19912;-72
2022/04/26 10:01:22;;;;;;;;;;;16.80;59.30;;;;;;5149263;27;19919;-72
2022/04/26 10:03:49;;;;;;;;;;;16.50;59.20;;;;;;5130844;27;19912;-72
2022/04/26 10:06:16;;;;;;;;;;;16.30;59.40;;;;;;5149404;27;19921;-65
2022/04/26 10:08:42;;;;;;;;;;;16.10;59.70;;;;;;5149888;27;19914;-72
2022/04/26 10:11:07;;;;;;;;;;;16.00;59.80;;;;;;5150345;27;20326;-72
2022/04/26 10:13:43;;;;;;;;;;;15.90;59.90;;;;;;5150020;27;19923;-73
2022/04/26 10:16:12;;;;;;;;;;;15.80;59.80;;;;;;5149862;27;19981;-73
2022/04/26 10:18:38;;;;;;;;;;;15.70;59.70;;;;;;5149696;27;19908;-72
2022/04/26 10:21:04;;;;;;;;;;;15.60;59.80;;;;;;5150005;27;19930;-72
2022/04/26 10:23:49;;;;;;;;;;;15.50;59.80;;;;;;5131693;27;20349;-72
2022/04/26 10:26:21;;;;;;;;;;;15.50;59.60;;;;;;5150041;27;19918;-72
2022/04/26 10:28:50;;;;;;;;;;;15.30;59.60;;;;;;5149909;27;19911;-72
2022/04/26 10:31:17;;;;;;;;;;;15.10;59.90;;;;;;5149775;27;19915;-71
2022/04/26 10:33:43;;;;;;;;;;;14.90;60.00;;;;;;5131052;27;20361;-73
2022/04/26 10:36:21;;;;;;;;;;;14.80;60.10;;;;;;5149451;27;19911;-72
2022/04/26 10:39:07;;;;;;;;;;;14.70;60.30;;;;;;5131278;27;19938;-71
2022/04/26 10:41:43;;;;;;;;;;;14.70;60.40;;;;;;5149635;27;19907;-72
2022/04/26 10:44:19;;;;;;;;;;;14.70;60.20;;;;;;5149437;27;20018;-71
2022/04/26 10:47:06;;;;;;;;;;;14.80;60.10;;;;;;5149856;27;20417;-72
2022/04/26 10:49:32;;;;;;;;;;;14.70;60.60;;;;;;5153168;27;19915;-72
2022/04/26 10:52:24;;;;;;;;;;;14.60;60.20;;;;;;5153985;27;19907;-72
2022/04/26 10:54:56;;;;;;;;;;;14.50;60.20;;;;;;5153375;27;19927;-72
2022/04/26 10:57:23;;;;;;;;;;;14.40;60.60;;;;;;5153245;27;19950;-72
2022/04/26 10:59:51;;;;;;;;;;;14.40;60.90;;;;;;5152580;27;19907;-72
2022/04/26 11:02:22;;;;;;;;;;;14.40;60.80;;;;;;5152160;27;20060;-72
2022/04/26 11:04:54;;;;;;;;;;;14.40;60.90;;;;;;5133732;27;19918;-72
2022/04/26 11:07:25;;;;;;;;;;;14.40;61.20;;;;;;5152476;27;20365;-72
2022/04/26 11:09:54;;;;;;;;;;;14.50;61.20;;;;;;5152640;27;19914;-72
2022/04/26 11:12:27;;;;;;;;;;;14.60;61.20;;;;;;5134138;27;19981;-72
2022/04/26 11:14:54;;;;;;;;;;;14.70;61.10;;;;;;5133597;27;19938;-72
2022/04/26 11:17:22;;;;;;;;;;;14.80;61.20;;;;;;5132776;27;20352;-72
2022/04/26 11:19:49;;;;;;;;;;;14.90;61.10;;;;;;5151972;27;20397;-72
2022/04/26 11:22:15;;;;;;;;;;;15.00;61.00;;;;;;5133217;27;19942;-72
2022/04/26 11:30:14;;;;;;;;;;;15.10;60.90;;;;;;5149724;27;19931;-73
2022/04/26 11:32:44;;;;;;;;;;;15.10;61.10;;;;;;5151433;27;20013;-73
2022/04/26 11:35:10;;;;;;;;;;;15.00;61.00;;;;;;5151831;27;20055;-73
2022/04/26 11:38:02;;;;;;;;;;;15.00;61.10;;;;;;5152001;27;19922;-72
2022/04/26 11:40:29;;;;;;;;;;;14.90;61.70;;;;;;5145510;27;19921;-73
2022/04/26 11:42:57;;;;;;;;;;;14.80;61.30;;;;;;5149725;27;20043;-73
2022/04/26 11:45:28;;;;;;;;;;;14.80;61.60;;;;;;5152375;27;20069;-73
2022/04/26 11:47:54;;;;;;;;;;;14.70;61.40;;;;;;5152723;27;20085;-73
2022/04/26 11:50:20;;;;;;;;;;;14.70;61.50;;;;;;5152863;27;19907;-72
2022/04/26 11:52:46;;;;;;;;;;;14.70;61.50;;;;;;5152563;27;19930;-69
2022/04/26 11:55:22;;;;;;;;;;;14.70;61.60;;;;;;5133559;27;19915;-72
2022/04/26 11:57:48;;;;;;;;;;;14.70;61.60;;;;;;5152550;27;19982;-72
2022/04/26 12:00:18;;;;;;;;;;;14.80;61.70;;;;;;5151719;27;19911;-72
2022/04/26 12:02:45;;;;;;;;;;;14.80;61.90;;;;;;5152591;27;20311;-73
2022/04/26 12:05:11;;;;;;;;;;;15.00;61.90;;;;;;5152272;27;19911;-72
2022/04/26 12:07:36;;;;;;;;;;;15.20;61.90;;;;;;5152257;27;19915;-73
2022/04/26 12:10:02;;;;;;;;;;;15.30;62.00;;;;;;5151980;27;19915;-73
2022/04/26 12:12:29;;;;;;;;;;;15.40;62.10;;;;;;5152088;27;19975;-73
2022/04/26 12:14:55;;;;;;;;;;;15.50;62.10;;;;;;5152543;27;20353;-73
2022/04/26 12:17:29;;;;;;;;;;;15.80;62.00;;;;;;5152122;27;20039;-73
2022/04/26 12:19:55;;;;;;;;;;;15.90;62.00;;;;;;5152364;27;19907;-72
2022/04/26 12:22:25;;;;;;;;;;;15.90;61.60;;;;;;5151765;27;19933;-72
2022/04/26 12:24:52;;;;;;;;;;;15.90;61.60;;;;;;5133254;27;20018;-73
2022/04/26 12:27:19;;;;;;;;;;;15.80;61.80;;;;;;5132185;27;19975;-73
2022/04/26 12:29:47;;;;;;;;;;;15.70;62.10;;;;;;5150869;27;19919;-72
2022/04/26 12:32:14;;;;;;;;;;;15.70;62.40;;;;;;5150645;27;20318;-72
2022/04/26 12:34:46;;;;;;;;;;;15.70;62.60;;;;;;5149820;27;20013;-69
2022/04/26 12:37:22;;;;;;;;;;;15.60;62.30;;;;;;5148181;27;19915;-72
2022/04/26 12:39:53;;;;;;;;;;;15.70;62.60;;;;;;5151117;27;19907;-72
2022/04/26 12:42:28;;;;;;;;;;;15.70;62.60;;;;;;5130787;27;19915;-72
2022/04/26 12:44:54;;;;;;;;;;;15.80;62.50;;;;;;5130899;27;19965;-73
2022/04/26 12:52:57;;;;;;;;;;;16.00;62.30;;;;;;5151311;27;19966;-72
2022/04/26 12:55:29;;;;;;;;;;;16.00;62.30;;;;;;5132714;27;20391;-73
2022/04/26 12:57:58;;;;;;;;;;;16.10;62.30;;;;;;5150778;27;19970;-72
2022/04/26 13:00:25;;;;;;;;;;;15.90;62.30;;;;;;5131979;27;19915;-73
2022/04/26 13:02:52;;;;;;;;;;;15.90;62.50;;;;;;5150658;27;19957;-73
2022/04/26 13:05:18;;;;;;;;;;;15.90;62.30;;;;;;5150650;27;20286;-72
2022/04/26 13:07:46;;;;;;;;;;;15.80;62.10;;;;;;5150141;27;19915;-72
2022/04/26 13:10:15;;;;;;;;;;;15.60;62.30;;;;;;5132096;27;19938;-72
2022/04/26 13:12:41;;;;;;;;;;;15.40;62.40;;;;;;5149359;27;20342;-72
2022/04/26 13:15:09;;;;;;;;;;;15.40;62.30;;;;;;5131577;27;19979;-72
2022/04/26 13:17:36;;;;;;;;;;;15.30;62.30;;;;;;5150082;27;19911;-73
2022/04/26 13:20:02;;;;;;;;;;;15.20;62.20;;;;;;5150234;27;19915;-73
2022/04/26 13:22:29;;;;;;;;;;;15.10;62.30;;;;;;5149979;27;19922;-72
2022/04/26 13:24:54;;;;;;;;;;;15.10;62.30;;;;;;5149894;27;20337;-72
2022/04/26 13:27:20;;;;;;;;;;;15.10;62.40;;;;;;5149390;27;19959;-72
2022/04/26 13:29:46;;;;;;;;;;;15.10;62.30;;;;;;5148908;27;19915;-72
2022/04/26 13:32:19;;;;;;;;;;;15.10;62.40;;;;;;5131421;27;19912;-71
2022/04/26 13:34:44;;;;;;;;;;;15.00;62.10;;;;;;5104261;28;20092;-71
2022/04/26 13:37:39;;;;;;;;;;;14.90;62.20;;;;;;5105643;28;19963;-78
2022/04/26 13:40:05;;;;;;;;;;;14.80;62.70;;;;;;5099375;28;20391;-73
2022/04/26 13:42:31;;;;;;;;;;;14.70;62.30;;;;;;5073478;28;19945;-73
2022/04/26 13:45:00;;;;;;;;;;;14.70;62.30;;;;;;5073479;28;20008;-73
2022/04/26 13:47:26;;;;;;;;;;;14.60;62.20;;;;;;5075849;28;20421;-73
2022/04/26 13:49:52;;;;;;;;;;;14.50;62.20;;;;;;5083027;28;20118;-73
2022/04/26 13:52:22;;;;;;;;;;;14.50;62.40;;;;;;5084414;28;19975;-73
2022/04/26 13:54:48;;;;;;;;;;;14.60;62.30;;;;;;5106313;28;19909;-73
2022/04/26 13:57:15;;;;;;;;;;;14.50;62.30;;;;;;5069613;28;19919;-72
2022/04/26 13:59:41;;;;;;;;;;;14.50;62.30;;;;;;5064438;28;20003;-72
2022/04/26 14:02:07;;;;;;;;;;;14.50;62.10;;;;;;5064373;28;19962;-72
2022/04/26 14:04:33;;;;;;;;;;;14.40;62.00;;;;;;5064424;28;20256;-71
2022/04/26 14:06:59;;;;;;;;;;;14.30;62.00;;;;;;5064589;28;20297;-72
2022/04/26 14:09:25;;;;;;;;;;;14.20;62.20;;;;;;5065285;28;19913;-71
2022/04/26 14:11:51;;;;;;;;;;;14.10;62.20;;;;;;5064628;28;20145;-64
2022/04/26 14:22:50;;;;;;;;;;;14.30;62.20;;;;;;5061680;28;19920;-72
2022/04/26 14:25:15;;;;;;;;;;;14.30;62.20;;;;;;5062189;28;19913;-72
2022/04/26 14:27:42;;;;;;;;;;;14.30;62.20;;;;;;5062848;28;20540;-72
2022/04/26 14:30:09;;;;;;;;;;;14.40;62.10;;;;;;5063710;28;19913;-71
2022/04/26 14:32:35;;;;;;;;;;;14.50;62.10;;;;;;5064217;28;20356;-73
2022/04/26 14:35:00;;;;;;;;;;;14.50;62.00;;;;;;5063450;28;19960;-72
2022/04/26 14:37:26;;;;;;;;;;;14.50;62.00;;;;;;5064280;28;19935;-72
2022/04/26 14:39:52;;;;;;;;;;;14.60;62.10;;;;;;5064434;28;19913;-72
2022/04/26 14:42:17;;;;;;;;;;;14.60;61.90;;;;;;5058696;28;19913;-70
2022/04/26 14:44:43;;;;;;;;;;;14.60;62.00;;;;;;5051115;28;19947;-69
2022/04/26 14:47:09;;;;;;;;;;;14.60;62.00;;;;;;5050686;28;19955;-69
2022/04/26 14:49:35;;;;;;;;;;;14.70;62.10;;;;;;5050915;28;19937;-71
2022/04/26 14:52:01;;;;;;;;;;;14.70;62.10;;;;;;5050230;28;20355;-73
2022/04/26 14:54:26;;;;;;;;;;;14.80;62.10;;;;;;5082587;28;20023;-69
2022/04/26 14:56:52;;;;;;;;;;;14.90;62.10;;;;;;5050679;28;20466;-70
2022/04/26 14:59:19;;;;;;;;;;;14.90;62.10;;;;;;5050479;28;20389;-70
2022/04/26 15:01:46;;;;;;;;;;;14.90;62.00;;;;;;5050361;28;20148;-72
2022/04/26 15:04:12;;;;;;;;;;;15.00;62.10;;;;;;5050779;28;19948;-71
2022/04/26 15:06:38;;;;;;;;;;;15.00;62.00;;;;;;5050362;28;20646;-69
2022/04/26 15:11:48;;;;;;;;;;;15.10;62.10;;;;;;5069046;28;19928;-69
2022/04/26 15:16:58;;;;;;;;;;;15.30;62.20;;;;;;5063301;28;20263;-71
2022/04/26 15:19:24;;;;;;;;;;;15.40;62.10;;;;;;5095966;28;19908;-70
2022/04/26 15:21:50;;;;;;;;;;;15.60;62.10;;;;;;5068222;28;19939;-70
2022/04/26 15:24:15;;;;;;;;;;;15.60;62.00;;;;;;5070208;28;20389;-70
2022/04/26 15:26:41;;;;;;;;;;;15.70;61.90;;;;;;5069730;28;19919;-69
2022/04/26 15:29:06;;;;;;;;;;;15.70;61.70;;;;;;5070462;28;19917;-69
2022/04/26 15:31:35;;;;;;;;;;;15.70;61.70;;;;;;5069856;28;20332;-69
2022/04/26 15:34:01;;;;;;;;;;;15.70;61.70;;;;;;5070060;28;19908;-71
2022/04/26 15:36:26;;;;;;;;;;;15.80;61.60;;;;;;5070164;28;19935;-71
2022/04/26 15:38:58;;;;;;;;;;;15.90;61.40;;;;;;5068984;28;20406;-71
2022/04/26 15:41:24;;;;;;;;;;;15.90;61.30;;;;;;5069748;28;19948;-70
2022/04/26 15:43:50;;;;;;;;;;;15.80;61.30;;;;;;5069965;28;19955;-71
2022/04/26 15:46:15;;;;;;;;;;;15.70;61.20;;;;;;5070018;28;19931;-71
2022/04/26 15:48:47;;;;;;;;;;;15.60;61.30;;;;;;5068739;28;20286;-71
2022/04/26 15:51:13;;;;;;;;;;;15.60;61.30;;;;;;5069426;28;19925;-70
2022/04/26 15:53:41;;;;;;;;;;;15.60;61.30;;;;;;5068716;28;19921;-70
2022/04/26 15:56:07;;;;;;;;;;;15.60;61.20;;;;;;5069328;28;19908;-71
2022/04/26 15:58:33;;;;;;;;;;;15.50;60.90;;;;;;5068127;28;20046;-73
2022/04/26 16:00:59;;;;;;;;;;;15.40;60.70;;;;;;5068306;28;19916;-70
2022/04/26 16:03:25;;;;;;;;;;;15.30;60.70;;;;;;5069474;28;19909;-71
2022/04/26 16:05:50;;;;;;;;;;;15.20;60.70;;;;;;5069558;28;20326;-70
2022/04/26 16:08:16;;;;;;;;;;;15.10;60.50;;;;;;5067952;28;19927;-70
2022/04/26 16:21:38;;;;;;;;;;;14.80;60.10;;;;;;5069588;28;19924;-71
2022/04/26 16:24:04;;;;;;;;;;;14.80;60.20;;;;;;5068909;28;19973;-71
2022/04/26 16:26:32;;;;;;;;;;;14.70;60.20;;;;;;5069196;28;20642;-71
2022/04/26 16:28:57;;;;;;;;;;;14.80;60.20;;;;;;5068863;28;19908;-73
2022/04/26 16:31:30;;;;;;;;;;;14.80;60.10;;;;;;5068657;28;19997;-72
2022/04/26 16:33:56;;;;;;;;;;;14.80;60.10;;;;;;5064190;28;19923;-73
2022/04/26 16:36:22;;;;;;;;;;;14.80;59.90;;;;;;5059589;28;20698;-73
2022/04/26 16:38:48;;;;;;;;;;;14.70;59.80;;;;;;5054413;28;19912;-73
2022/04/26 16:41:17;;;;;;;;;;;14.70;59.60;;;;;;5059674;28;19913;-73
2022/04/26 16:43:43;;;;;;;;;;;14.70;59.70;;;;;;5056993;28;19940;-73
2022/04/26 16:46:11;;;;;;;;;;;14.60;59.60;;;;;;5059644;28;20268;-74
2022/04/26 16:48:37;;;;;;;;;;;14.60;59.60;;;;;;5057516;28;19918;-73
2022/04/26 16:51:03;;;;;;;;;;;14.60;59.50;;;;;;5056852;28;20387;-74
2022/04/26 16:53:29;;;;;;;;;;;14.50;59.60;;;;;;5067486;28;19919;-74
2022/04/26 16:55:56;;;;;;;;;;;14.50;59.50;;;;;;5068083;28;19919;-73
2022/04/26 16:58:22;;;;;;;;;;;14.50;59.50;;;;;;5068399;28;19912;-74
2022/04/26 17:00:57;;;;;;;;;;;14.50;59.60;;;;;;5067550;28;19919;-73
2022/04/26 17:03:22;;;;;;;;;;;14.50;59.50;;;;;;5055061;28;19913;-73
2022/04/26 17:05:48;;;;;;;;;;;14.50;59.50;;;;;;5048006;28;19909;-74
2022/04/26 17:08:17;;;;;;;;;;;14.50;59.50;;;;;;5048795;28;19916;-74
2022/04/26 17:10:43;;;;;;;;;;;14.40;59.40;;;;;;5048338;28;20013;-74
2022/04/26 17:13:09;;;;;;;;;;;14.40;59.30;;;;;;5048416;28;19992;-72
2022/04/26 17:15:36;;;;;;;;;;;14.30;59.20;;;;;;5048208;28;19959;-73
2022/04/26 17:18:02;;;;;;;;;;;14.30;59.30;;;;;;5048310;28;19939;-72
2022/04/26 17:20:32;;;;;;;;;;;14.30;59.30;;;;;;5048884;28;19913;-73
2022/04/26 17:22:58;;;;;;;;;;;14.20;59.30;;;;;;5048392;28;19920;-73
2022/04/26 17:25:24;;;;;;;;;;;14.20;59.40;;;;;;5048840;28;19913;-74
2022/04/26 17:27:50;;;;;;;;;;;14.10;59.30;;;;;;5048164;28;19920;-73
2022/04/26 17:30:16;;;;;;;;;;;14.10;59.30;;;;;;5046856;28;19928;-73
2022/04/26 17:32:43;;;;;;;;;;;14.00;59.40;;;;;;5048105;28;19913;-73
2022/04/26 17:35:09;;;;;;;;;;;14.00;59.40;;;;;;5048260;28;19991;-73
2022/04/26 17:37:35;;;;;;;;;;;13.90;59.50;;;;;;5048294;28;19913;-73
2022/04/26 17:40:01;;;;;;;;;;;13.90;59.40;;;;;;5048400;28;20426;-73
2022/04/26 17:42:28;;;;;;;;;;;13.80;59.30;;;;;;5048394;28;20015;-72
2022/04/26 17:44:55;;;;;;;;;;;13.80;59.40;;;;;;5048119;28;20043;-74
2022/04/26 17:47:22;;;;;;;;;;;13.70;59.50;;;;;;5047788;28;19913;-74
2022/04/26 17:49:48;;;;;;;;;;;13.60;59.60;;;;;;5047283;28;19928;-74
2022/04/26 17:52:13;;;;;;;;;;;13.70;59.70;;;;;;5047596;28;19916;-73
2022/04/26 17:57:23;;;;;;;;;;;13.60;59.70;;;;;;5047991;28;20038;-74
2022/04/26 17:59:49;;;;;;;;;;;13.50;59.70;;;;;;5047181;28;20371;-74
2022/04/26 18:02:14;;;;;;;;;;;13.50;59.70;;;;;;5047208;28;19913;-73
2022/04/26 18:04:40;;;;;;;;;;;13.50;59.70;;;;;;5078914;28;20009;-73
2022/04/26 18:07:06;;;;;;;;;;;13.50;59.70;;;;;;5047275;28;19998;-73
2022/04/26 18:09:36;;;;;;;;;;;13.40;59.60;;;;;;5047297;28;19996;-73
2022/04/26 18:12:02;;;;;;;;;;;13.30;59.70;;;;;;5079445;28;19923;-73
2022/04/26 18:14:28;;;;;;;;;;;13.30;59.80;;;;;;5079466;28;19923;-70
2022/04/26 18:16:53;;;;;;;;;;;13.20;59.80;;;;;;5047579;28;19913;-73
2022/04/26 18:19:19;;;;;;;;;;;13.10;59.90;;;;;;5050123;28;19921;-73
2022/04/26 18:21:44;;;;;;;;;;;13.10;60.00;;;;;;5049663;28;19912;-74
2022/04/26 18:24:10;;;;;;;;;;;13.00;60.10;;;;;;5049673;28;20417;-73
2022/04/26 18:26:38;;;;;;;;;;;13.00;60.10;;;;;;5049146;28;19913;-64
2022/04/26 18:29:04;;;;;;;;;;;12.90;60.20;;;;;;5049138;28;19923;-74
2022/04/26 18:31:31;;;;;;;;;;;12.90;60.20;;;;;;5048850;28;20003;-74
2022/04/26 18:33:57;;;;;;;;;;;12.80;60.20;;;;;;5049078;28;20303;-74
2022/04/26 18:36:23;;;;;;;;;;;12.80;60.20;;;;;;5048769;28;19917;-74
2022/04/26 18:38:50;;;;;;;;;;;12.80;60.30;;;;;;5048463;28;19956;-73
2022/04/26 18:41:17;;;;;;;;;;;12.70;60.30;;;;;;5048846;28;19909;-74
2022/04/26 18:43:43;;;;;;;;;;;12.70;60.40;;;;;;5049290;28;19988;-73
2022/04/26 18:46:09;;;;;;;;;;;12.60;60.50;;;;;;5048034;28;20004;-73
2022/04/26 18:48:37;;;;;;;;;;;12.50;60.40;;;;;;5049859;28;19909;-74